Time;durP1;ratioP1;P1;durP2;ratioP2;P2;SDS_P1;SDS_P2;PMS_P1;PMS_P2;Temp;Humidity;BMP_temperature;BMP_pressure;BME280_temperature;BME280_humidity;BME280_pressure;Samples;Min_cycle;Max_cycle;Signal;HPM_P1;HPM_P2
2023/03/31 00:02:13;;;;;;;7.10;2.00;;;;;;;12.45;100.00;100293.06;5238393;28;20291;-70
2023/03/31 00:04:45;;;;;;;6.47;2.30;;;;;;;12.48;100.00;100284.88;5238380;28;20444;-70
2023/03/31 00:07:20;;;;;;;7.22;2.35;;;;;;;12.45;100.00;100279.94;5229565;28;20029;-70
2023/03/31 00:09:56;;;;;;;8.73;2.45;;;;;;;12.47;100.00;100266.66;5230846;28;20058;-70
2023/03/31 00:12:27;;;;;;;6.40;1.92;;;;;;;12.44;100.00;100256.47;5238175;28;20037;-70
2023/03/31 00:14:59;;;;;;;7.05;2.30;;;;;;;12.52;100.00;100245.97;5236856;28;20021;-70
2023/03/31 00:17:32;;;;;;;9.25;2.58;;;;;;;12.49;100.00;100244.47;5237054;28;20032;-70
2023/03/31 00:20:04;;;;;;;6.35;1.85;;;;;;;12.55;100.00;100237.78;5238064;28;20052;-70
2023/03/31 00:22:37;;;;;;;8.30;2.50;;;;;;;12.56;100.00;100226.28;5242092;28;20629;-70
2023/03/31 00:25:09;;;;;;;8.90;2.47;;;;;;;12.58;100.00;100221.72;5234445;28;20033;-71
2023/03/31 00:27:44;;;;;;;7.80;2.50;;;;;;;12.56;100.00;100215.78;5244769;28;20029;-70
2023/03/31 00:30:16;;;;;;;7.78;2.47;;;;;;;12.36;100.00;100213.41;5239661;28;20020;-70
2023/03/31 00:32:48;;;;;;;7.10;2.50;;;;;;;12.35;100.00;100210.91;5234981;28;20451;-70
2023/03/31 00:35:19;;;;;;;7.32;2.00;;;;;;;12.35;100.00;100208.28;5234195;28;20022;-70
2023/03/31 00:37:52;;;;;;;7.68;2.40;;;;;;;12.32;100.00;100201.56;5236937;28;20220;-71
2023/03/31 00:40:24;;;;;;;7.78;2.70;;;;;;;12.24;100.00;100185.78;5227400;28;20035;-71
2023/03/31 00:42:55;;;;;;;8.25;2.05;;;;;;;12.27;100.00;100190.69;5239558;28;20398;-71
2023/03/31 00:45:29;;;;;;;8.40;2.42;;;;;;;12.25;100.00;100183.97;5242432;28;20542;-71
2023/03/31 00:48:15;;;;;;;9.65;2.33;;;;;;;12.36;100.00;100187.13;5234170;28;20380;-71
2023/03/31 00:50:51;;;;;;;9.25;2.25;;;;;;;12.29;100.00;100180.88;5238953;28;20337;-71
2023/03/31 00:53:28;;;;;;;7.05;1.90;;;;;;;12.32;100.00;100179.72;5238393;28;20116;-70
2023/03/31 00:56:12;;;;;;;6.47;1.73;;;;;;;12.48;100.00;100169.28;5241288;28;20623;-71
2023/03/31 00:58:44;;;;;;;9.32;2.40;;;;;;;12.25;100.00;100160.34;5236983;28;20029;-70
2023/03/31 01:01:19;;;;;;;6.88;2.20;;;;;;;12.32;100.00;100164.78;5240934;28;20132;-70
2023/03/31 01:03:52;;;;;;;6.68;2.33;;;;;;;12.29;100.00;100164.28;5238436;28;20053;-71
2023/03/31 01:06:24;;;;;;;8.32;2.63;;;;;;;12.31;100.00;100160.53;5238504;28;20036;-70
2023/03/31 01:08:56;;;;;;;13.45;2.80;;;;;;;12.27;100.00;100153.91;5240209;28;20033;-71
2023/03/31 01:11:30;;;;;;;7.28;2.13;;;;;;;12.31;100.00;100150.03;5236512;28;20037;-71
2023/03/31 01:14:03;;;;;;;7.10;2.03;;;;;;;12.31;100.00;100149.19;5228018;28;20040;-71
2023/03/31 01:16:34;;;;;;;8.07;2.05;;;;;;;12.31;100.00;100142.16;5235867;28;20462;-71
2023/03/31 01:19:13;;;;;;;8.13;2.83;;;;;;;12.39;100.00;100136.09;5242041;28;20025;-71
2023/03/31 01:22:12;;;;;;;9.82;2.10;;;;;;;12.58;100.00;100132.38;5235318;28;20049;-70
2023/03/31 01:25:12;;;;;;;7.03;1.90;;;;;;;12.41;100.00;100127.06;5233511;28;20037;-70
2023/03/31 01:27:57;;;;;;;7.10;2.10;;;;;;;12.48;100.00;100123.81;5216095;28;20848;-71
2023/03/31 01:31:02;;;;;;;7.55;2.42;;;;;;;12.50;100.00;100113.94;5242629;28;20081;-71
2023/03/31 01:34:11;;;;;;;7.20;2.42;;;;;;;12.57;100.00;100112.31;5235032;28;20033;-70
2023/03/31 01:37:00;;;;;;;10.25;2.78;;;;;;;12.29;100.00;100111.75;5238015;28;21430;-71
2023/03/31 01:39:59;;;;;;;8.65;2.47;;;;;;;12.57;100.00;100109.69;5237414;28;20498;-70
2023/03/31 01:42:35;;;;;;;8.90;2.33;;;;;;;12.44;100.00;100099.66;5252920;28;20118;-70
2023/03/31 01:45:18;;;;;;;12.10;3.13;;;;;;;12.42;100.00;100093.72;5237384;28;20569;-70
2023/03/31 01:47:58;;;;;;;12.50;2.85;;;;;;;12.37;100.00;100088.13;5262067;22;20144;-72
2023/03/31 01:50:35;;;;;;;10.48;2.63;;;;;;;12.23;100.00;100071.19;5249161;28;20032;-72
2023/03/31 01:53:14;;;;;;;10.85;2.58;;;;;;;12.37;100.00;100054.81;5265166;28;20378;-72
2023/03/31 01:55:57;;;;;;;9.43;3.15;;;;;;;12.22;100.00;100048.53;5243704;28;20029;-72
2023/03/31 01:58:37;;;;;;;10.23;2.50;;;;;;;12.28;100.00;100037.41;5235379;28;20036;-72
2023/03/31 02:01:19;;;;;;;9.20;2.45;;;;;;;12.19;100.00;100027.84;5238975;28;20021;-72
2023/03/31 02:04:02;;;;;;;9.73;2.08;;;;;;;12.34;100.00;100031.47;5238101;28;20375;-72
2023/03/31 02:06:39;;;;;;;6.97;2.10;;;;;;;12.27;100.00;100017.34;5238215;28;20056;-72
2023/03/31 02:09:16;;;;;;;6.38;2.22;;;;;;;12.29;100.00;100018.03;5238806;28;20049;-72
2023/03/31 02:11:49;;;;;;;8.35;2.25;;;;;;;12.21;100.00;100004.06;5240721;28;20063;-72
2023/03/31 02:14:24;;;;;;;7.18;2.20;;;;;;;12.30;100.00;99997.84;5232322;28;20028;-72
2023/03/31 02:16:58;;;;;;;10.38;2.50;;;;;;;12.21;100.00;99980.44;5236630;28;20424;-72
2023/03/31 02:19:34;;;;;;;10.23;2.60;;;;;;;12.24;100.00;99964.34;5241436;28;20404;-72
2023/03/31 02:22:07;;;;;;;8.65;2.35;;;;;;;12.31;100.00;99970.56;5240784;28;20036;-72
2023/03/31 02:24:39;;;;;;;10.98;2.67;;;;;;;12.26;100.00;99963.19;5236831;28;20061;-72
2023/03/31 02:27:18;;;;;;;10.23;2.60;;;;;;;12.37;100.00;99955.00;5239084;28;20048;-72
2023/03/31 02:29:49;;;;;;;9.63;2.45;;;;;;;12.24;100.00;99946.78;5234877;28;20112;-72
2023/03/31 02:32:26;;;;;;;9.07;2.90;;;;;;;12.32;100.00;99938.91;5240276;28;20027;-72
2023/03/31 02:34:59;;;;;;;12.88;3.03;;;;;;;12.24;100.00;99938.09;5240411;28;21441;-73
2023/03/31 02:37:31;;;;;;;11.55;3.05;;;;;;;12.27;100.00;99914.09;5232456;28;20398;-73
2023/03/31 02:40:09;;;;;;;10.27;2.90;;;;;;;12.37;100.00;99902.47;5237935;28;20037;-73
2023/03/31 02:42:41;;;;;;;11.80;2.72;;;;;;;12.27;100.00;99883.41;5237582;28;20083;-72
2023/03/31 02:45:37;;;;;;;10.00;2.60;;;;;;;12.60;100.00;99891.28;5239847;28;20732;-72
2023/03/31 02:48:31;;;;;;;11.48;2.45;;;;;;;12.55;100.00;99890.97;5230858;28;20097;-73
2023/03/31 02:51:28;;;;;;;10.77;3.20;;;;;;;12.46;100.00;99871.75;5236195;28;20032;-73
2023/03/31 02:54:19;;;;;;;10.65;3.10;;;;;;;12.24;100.00;99860.13;5234082;28;20033;-73
2023/03/31 02:56:56;;;;;;;9.75;3.25;;;;;;;12.23;100.00;99861.09;5235986;28;20033;-73
2023/03/31 02:59:47;;;;;;;14.98;2.80;;;;;;;12.31;100.00;99841.88;5240364;28;20052;-73
2023/03/31 03:02:55;;;;;;;12.48;2.60;;;;;;;12.54;100.00;99834.97;5233454;28;20037;-73
2023/03/31 03:05:49;;;;;;;11.20;2.85;;;;;;;12.32;100.00;99831.22;5213404;28;20310;-73
2023/03/31 03:08:33;;;;;;;13.25;2.75;;;;;;;12.30;100.00;99829.75;5235231;28;20039;-73
2023/03/31 03:11:20;;;;;;;14.50;2.90;;;;;;;12.35;100.00;99832.69;5232427;28;20120;-73
2023/03/31 03:13:55;;;;;;;9.50;3.25;;;;;;;12.27;100.00;99830.06;5234042;28;20437;-73
2023/03/31 03:16:35;;;;;;;11.93;3.53;;;;;;;12.30;100.00;99822.69;5235865;28;20475;-73
2023/03/31 03:19:08;;;;;;;11.75;2.65;;;;;;;12.20;100.00;99829.09;5234064;28;20025;-73
2023/03/31 03:21:39;;;;;;;10.40;2.80;;;;;;;12.17;100.00;99811.88;5232826;28;20029;-73
2023/03/31 03:24:10;;;;;;;12.15;3.20;;;;;;;12.15;100.00;99798.91;5238994;28;20033;-73
2023/03/31 03:26:43;;;;;;;13.82;3.35;;;;;;;12.16;100.00;99811.06;5237261;28;20071;-73
2023/03/31 03:29:14;;;;;;;14.63;3.15;;;;;;;12.17;100.00;99809.25;5234964;28;20266;-73
2023/03/31 03:31:46;;;;;;;10.40;2.30;;;;;;;12.13;100.00;99806.13;5236752;28;20029;-73
2023/03/31 03:34:18;;;;;;;10.18;2.45;;;;;;;12.21;100.00;99809.75;5234722;28;20029;-72
2023/03/31 03:36:50;;;;;;;14.98;3.53;;;;;;;12.24;100.00;99798.91;5235267;28;20033;-72
2023/03/31 03:39:22;;;;;;;8.57;2.70;;;;;;;12.26;100.00;99789.03;5235714;28;20033;-72
2023/03/31 03:41:53;;;;;;;10.73;2.50;;;;;;;12.13;100.00;99776.44;5232937;28;20116;-72
2023/03/31 03:44:24;;;;;;;13.30;3.35;;;;;;;12.11;100.00;99765.28;5233856;28;20037;-72
2023/03/31 03:46:55;;;;;;;15.80;2.95;;;;;;;12.11;100.00;99760.84;5238030;28;20094;-72
2023/03/31 03:49:27;;;;;;;10.63;2.72;;;;;;;12.14;100.00;99760.50;5233933;28;20045;-72
2023/03/31 03:51:58;;;;;;;12.50;2.53;;;;;;;12.05;100.00;99748.41;5243237;28;20064;-72
2023/03/31 03:54:29;;;;;;;10.07;2.35;;;;;;;12.06;100.00;99738.72;5237773;28;20119;-72
2023/03/31 03:57:01;;;;;;;8.98;2.10;;;;;;;12.03;100.00;99728.53;5239048;28;20635;-72
2023/03/31 03:59:32;;;;;;;8.43;1.95;;;;;;;12.03;100.00;99720.66;5240656;28;20060;-72
2023/03/31 04:02:04;;;;;;;9.75;2.60;;;;;;;11.96;100.00;99712.63;5241410;28;20450;-72
2023/03/31 04:04:35;;;;;;;10.32;2.67;;;;;;;11.97;100.00;99718.69;5244730;28;20454;-73
2023/03/31 04:07:06;;;;;;;9.35;2.15;;;;;;;12.04;100.00;99709.16;5243283;28;20098;-72
2023/03/31 04:09:38;;;;;;;9.50;1.95;;;;;;;12.10;100.00;99708.50;5240023;28;20029;-72
2023/03/31 04:12:09;;;;;;;8.15;2.45;;;;;;;12.09;100.00;99694.56;5233798;28;20035;-73
2023/03/31 04:14:40;;;;;;;7.68;2.25;;;;;;;12.08;100.00;99687.66;5239889;28;20037;-72
2023/03/31 04:17:14;;;;;;;8.20;1.77;;;;;;;12.05;100.00;99672.25;5232422;28;20030;-72
2023/03/31 04:19:49;;;;;;;9.63;2.40;;;;;;;12.01;100.00;99652.59;5240128;28;20079;-72
2023/03/31 04:22:20;;;;;;;9.63;2.05;;;;;;;12.11;100.00;99678.63;5238992;28;20502;-72
2023/03/31 04:24:57;;;;;;;6.70;1.45;;;;;;;12.08;100.00;99661.41;5240452;28;20115;-73
2023/03/31 04:27:29;;;;;;;9.65;2.53;;;;;;;12.04;100.00;99656.66;5239978;28;20079;-73
2023/03/31 04:30:01;;;;;;;5.27;1.87;;;;;;;12.01;100.00;99647.34;5236915;28;20143;-73
2023/03/31 04:32:35;;;;;;;7.90;1.90;;;;;;;12.01;100.00;99642.09;5237246;28;20029;-73
2023/03/31 04:35:07;;;;;;;7.82;2.03;;;;;;;11.89;100.00;99623.25;5240676;28;20036;-73
2023/03/31 04:37:38;;;;;;;8.35;2.20;;;;;;;11.98;100.00;99626.66;5240182;28;20025;-75
2023/03/31 04:40:10;;;;;;;7.97;1.92;;;;;;;11.96;100.00;99614.69;5234949;28;20088;-75
2023/03/31 04:42:42;;;;;;;7.18;2.15;;;;;;;11.92;100.00;99611.59;5244853;28;20025;-73
2023/03/31 04:45:14;;;;;;;7.57;1.70;;;;;;;11.91;100.00;99610.78;5235046;28;20083;-73
2023/03/31 04:47:45;;;;;;;7.65;1.60;;;;;;;11.92;100.00;99599.28;5237766;28;20171;-73
2023/03/31 04:50:16;;;;;;;6.35;1.90;;;;;;;11.89;100.00;99590.91;5235192;28;20041;-73
2023/03/31 04:52:48;;;;;;;10.23;2.50;;;;;;;11.88;100.00;99590.09;5239599;28;20057;-73
2023/03/31 04:55:19;;;;;;;6.63;1.58;;;;;;;11.89;100.00;99588.28;5239083;28;20030;-73
2023/03/31 04:57:51;;;;;;;6.32;1.65;;;;;;;11.93;100.00;99592.22;5237624;28;20292;-73
2023/03/31 05:00:22;;;;;;;4.45;1.45;;;;;;;11.87;100.00;99593.72;5236269;28;20033;-73
2023/03/31 05:02:53;;;;;;;8.15;2.30;;;;;;;11.81;100.00;99586.50;5237415;28;20032;-72
2023/03/31 05:05:25;;;;;;;8.68;2.00;;;;;;;11.95;100.00;99579.75;5236188;28;20068;-72
2023/03/31 05:07:56;;;;;;;5.25;1.45;;;;;;;11.93;100.00;99577.31;5234536;28;20287;-72
2023/03/31 05:10:28;;;;;;;7.22;1.92;;;;;;;11.86;100.00;99560.59;5238830;28;20029;-72
2023/03/31 05:12:59;;;;;;;5.55;1.80;;;;;;;11.83;100.00;99552.22;5240872;28;20553;-73
2023/03/31 05:15:31;;;;;;;5.47;1.55;;;;;;;11.80;100.00;99548.13;5234948;28;20030;-73
2023/03/31 05:18:02;;;;;;;7.70;1.63;;;;;;;11.82;100.00;99545.31;5237199;28;20306;-73
2023/03/31 05:20:33;;;;;;;7.05;1.83;;;;;;;11.81;100.00;99546.31;5227013;28;20021;-73
2023/03/31 05:23:05;;;;;;;5.05;1.42;;;;;;;11.86;100.00;99536.19;5231947;28;20028;-73
2023/03/31 05:25:37;;;;;;;6.63;1.88;;;;;;;11.85;100.00;99537.94;5232181;28;20429;-72
2023/03/31 05:28:11;;;;;;;7.82;1.88;;;;;;;11.81;100.00;99536.63;5231182;28;20033;-73
2023/03/31 05:30:42;;;;;;;7.57;1.60;;;;;;;11.74;100.00;99519.94;5227805;28;20029;-73
2023/03/31 05:33:13;;;;;;;6.45;1.50;;;;;;;11.82;100.00;99522.53;5235908;28;20149;-73
2023/03/31 05:35:44;;;;;;;6.30;1.58;;;;;;;11.76;100.00;99509.28;5233368;28;20044;-73
2023/03/31 05:38:16;;;;;;;6.88;1.70;;;;;;;11.80;100.00;99511.38;5232982;28;20064;-73
2023/03/31 05:40:47;;;;;;;5.60;1.85;;;;;;;11.80;100.00;99524.50;5229153;28;20033;-72
2023/03/31 05:43:18;;;;;;;6.53;1.50;;;;;;;11.76;100.00;99517.16;5232447;28;20017;-71
2023/03/31 05:45:50;;;;;;;3.85;1.33;;;;;;;11.76;100.00;99514.53;5233266;28;20028;-72
2023/03/31 05:48:21;;;;;;;6.10;1.67;;;;;;;11.75;100.00;99505.84;5232695;28;20025;-71
2023/03/31 05:51:00;;;;;;;6.05;1.35;;;;;;;11.89;100.00;99502.53;5234739;28;20040;-71
2023/03/31 05:53:32;;;;;;;5.18;1.50;;;;;;;11.81;100.00;99494.66;5235116;28;20482;-71
2023/03/31 05:56:05;;;;;;;5.20;1.30;;;;;;;11.77;100.00;99501.22;5232502;28;20037;-71
2023/03/31 05:58:37;;;;;;;5.88;1.55;;;;;;;11.81;100.00;99499.91;5240808;28;20119;-71
2023/03/31 06:01:18;;;;;;;7.43;1.75;;;;;;;11.80;100.00;99495.66;5234417;28;20112;-71
2023/03/31 06:03:49;;;;;;;6.63;2.15;;;;;;;11.73;100.00;99505.19;5236745;28;20043;-71
2023/03/31 06:06:21;;;;;;;5.95;1.52;;;;;;;11.73;100.00;99488.63;5240633;28;20499;-71
2023/03/31 06:08:53;;;;;;;5.60;1.60;;;;;;;11.69;100.00;99475.03;5240121;28;20033;-71
2023/03/31 06:11:24;;;;;;;8.00;1.77;;;;;;;11.66;100.00;99454.38;5239107;28;20062;-71
2023/03/31 06:13:55;;;;;;;6.35;1.65;;;;;;;11.69;100.00;99460.09;5234475;28;20039;-71
2023/03/31 06:16:27;;;;;;;4.90;1.48;;;;;;;11.72;100.00;99452.88;5238492;28;20114;-71
2023/03/31 06:18:59;;;;;;;13.77;1.75;;;;;;;11.75;100.00;99457.81;5234405;28;20080;-71
2023/03/31 06:21:30;;;;;;;5.05;1.70;;;;;;;11.60;100.00;99437.53;5240675;28;20028;-71
2023/03/31 06:24:01;;;;;;;5.85;1.50;;;;;;;11.75;100.00;99436.81;5237239;28;20478;-71
2023/03/31 06:26:33;;;;;;;5.45;1.33;;;;;;;11.73;100.00;99439.59;5234360;28;20033;-70
2023/03/31 06:29:05;;;;;;;6.25;2.17;;;;;;;11.67;100.00;99429.81;5235034;28;20033;-70
2023/03/31 06:31:36;;;;;;;5.82;1.90;;;;;;;11.69;100.00;99460.09;5229085;28;20095;-70
2023/03/31 06:34:07;;;;;;;9.30;2.70;;;;;;;11.73;100.00;99472.88;5236432;28;20083;-71
2023/03/31 06:36:38;;;;;;;6.07;1.55;;;;;;;11.77;100.00;99453.19;5239510;28;20029;-71
2023/03/31 06:39:10;;;;;;;3.58;1.30;;;;;;;11.73;100.00;99428.28;5237358;28;20079;-71
2023/03/31 06:41:41;;;;;;;7.07;1.85;;;;;;;11.72;100.00;99448.47;5237278;28;20445;-70
2023/03/31 06:44:15;;;;;;;6.03;1.60;;;;;;;11.75;100.00;99444.69;5240254;28;20539;-71
2023/03/31 06:46:46;;;;;;;7.90;1.83;;;;;;;11.76;100.00;99447.13;5237435;28;20036;-71
2023/03/31 06:49:18;;;;;;;6.00;1.67;;;;;;;11.78;100.00;99450.41;5234904;28;20048;-71
2023/03/31 06:51:49;;;;;;;6.78;2.22;;;;;;;11.82;100.00;99437.72;5228461;28;20049;-71
2023/03/31 06:54:20;;;;;;;3.72;1.77;;;;;;;11.84;100.00;99433.19;5237055;28;20037;-71
2023/03/31 06:56:52;;;;;;;7.82;2.40;;;;;;;11.84;100.00;99436.59;5239521;28;20048;-71
2023/03/31 06:59:23;;;;;;;8.80;1.83;;;;;;;11.85;100.00;99448.72;5233937;28;20025;-71
2023/03/31 07:01:54;;;;;;;7.00;2.70;;;;;;;11.78;100.00;99429.41;5231945;28;20078;-71
2023/03/31 07:04:25;;;;;;;13.55;2.45;;;;;;;11.75;100.00;99442.06;5234290;28;20029;-71
2023/03/31 07:06:58;;;;;;;9.38;2.67;;;;;;;11.78;100.00;99441.69;5236968;28;20021;-71
2023/03/31 07:09:29;;;;;;;10.07;2.93;;;;;;;11.86;100.00;99450.38;5238125;28;20017;-70
2023/03/31 07:12:04;;;;;;;11.73;3.40;;;;;;;11.84;100.00;99428.75;5235413;28;20514;-70
2023/03/31 07:14:35;;;;;;;10.57;2.33;;;;;;;11.89;100.00;99408.06;5234059;28;20033;-70
2023/03/31 07:17:07;;;;;;;7.85;2.30;;;;;;;11.93;100.00;99411.13;5234110;28;20021;-70
2023/03/31 07:19:40;;;;;;;9.77;2.60;;;;;;;11.94;100.00;99402.28;5237767;28;20112;-71
2023/03/31 07:22:13;;;;;;;9.20;2.55;;;;;;;11.91;100.00;99411.31;5235631;28;20025;-70
2023/03/31 07:24:44;;;;;;;9.13;2.10;;;;;;;11.98;100.00;99395.69;5235889;28;20078;-70
2023/03/31 07:27:16;;;;;;;11.38;2.80;;;;;;;11.99;100.00;99392.06;5230594;28;20148;-70
2023/03/31 07:29:48;;;;;;;6.68;2.10;;;;;;;11.97;100.00;99399.31;5235111;28;20032;-70
2023/03/31 07:32:22;;;;;;;8.75;2.35;;;;;;;11.93;100.00;99400.63;5239366;28;20025;-70
2023/03/31 07:34:54;;;;;;;7.90;1.95;;;;;;;11.91;100.00;99402.63;5233096;28;20140;-70
2023/03/31 07:37:26;;;;;;;9.48;1.90;;;;;;;12.01;100.00;99399.75;5240704;28;20302;-70
2023/03/31 07:39:57;;;;;;;7.32;1.92;;;;;;;12.00;100.00;99393.69;5227920;28;20028;-70
2023/03/31 07:42:28;;;;;;;7.15;1.98;;;;;;;11.99;100.00;99393.88;5241664;28;20021;-71
2023/03/31 07:45:00;;;;;;;9.10;2.53;;;;;;;12.03;100.00;99401.22;5232370;28;20029;-70
2023/03/31 07:47:31;;;;;;;8.05;2.00;;;;;;;12.10;100.00;99399.53;5236513;28;20715;-71
2023/03/31 07:50:03;;;;;;;12.85;2.15;;;;;;;12.14;100.00;99395.56;5232162;28;20048;-70
2023/03/31 07:52:34;;;;;;;9.10;2.40;;;;;;;12.22;100.00;99393.88;5233881;28;20059;-70
2023/03/31 07:55:07;;;;;;;10.50;2.72;;;;;;;12.27;100.00;99384.47;5236202;28;20112;-71
2023/03/31 07:57:40;;;;;;;11.70;3.22;;;;;;;12.36;100.00;99387.84;5238768;28;20549;-70
2023/03/31 08:00:12;;;;;;;9.68;2.90;;;;;;;12.42;100.00;99381.88;5233884;28;20655;-70
2023/03/31 08:02:44;;;;;;;11.20;2.40;;;;;;;12.45;100.00;99371.03;5235419;28;20471;-70
2023/03/31 08:05:17;;;;;;;14.60;3.85;;;;;;;12.51;100.00;99380.81;5234468;28;20022;-71
2023/03/31 08:07:49;;;;;;;16.33;3.97;;;;;;;12.59;100.00;99375.50;5239015;28;20456;-70
2023/03/31 08:10:24;;;;;;;11.73;3.38;;;;;;;12.72;100.00;99374.84;5237022;28;20021;-71
2023/03/31 08:12:56;;;;;;;14.55;3.38;;;;;;;12.70;100.00;99374.25;5236471;28;20118;-71
2023/03/31 08:15:27;;;;;;;13.63;4.45;;;;;;;12.72;100.00;99368.78;5236181;28;20128;-71
2023/03/31 08:17:59;;;;;;;11.25;2.97;;;;;;;12.82;100.00;99367.53;5239689;28;20028;-71
2023/03/31 08:20:31;;;;;;;14.55;3.55;;;;;;;12.85;100.00;99355.84;5237539;28;20045;-71
2023/03/31 08:23:04;;;;;;;12.77;3.38;;;;;;;12.87;100.00;99359.09;5239593;28;20600;-71
2023/03/31 08:25:35;;;;;;;;;;;;;;;13.52;100.00;99365.41;5237999;28;20063;-71
2023/03/31 08:28:09;;;;;;;12.15;3.38;;;;;;;13.09;100.00;99352.13;5237658;28;19913;-71
2023/03/31 08:30:41;;;;;;;11.70;3.30;;;;;;;13.07;100.00;99362.84;5230992;28;20044;-71
2023/03/31 08:33:13;;;;;;;13.82;3.63;;;;;;;13.08;100.00;99359.19;5236379;28;20029;-71
2023/03/31 08:35:44;;;;;;;12.77;3.38;;;;;;;13.14;100.00;99357.63;5244860;28;20584;-71
2023/03/31 08:38:15;;;;;;;14.93;3.78;;;;;;;13.04;100.00;99343.97;5242847;28;20021;-71
2023/03/31 08:40:46;;;;;;;13.10;3.50;;;;;;;13.11;100.00;99358.03;5239877;28;20104;-71
2023/03/31 08:43:28;;;;;;;14.10;3.70;;;;;;;13.29;100.00;99363.72;5240919;28;20031;-70
2023/03/31 08:46:01;;;;;;;16.42;3.58;;;;;;;13.22;100.00;99357.56;5239215;28;20021;-71
2023/03/31 08:48:45;;;;;;;13.32;3.47;;;;;;;13.33;100.00;99358.91;5240665;28;20036;-70
2023/03/31 08:51:27;;;;;;;15.73;3.50;;;;;;;13.39;100.00;99353.72;5234292;28;20029;-71
2023/03/31 08:54:03;;;;;;;15.43;3.25;;;;;;;13.35;100.00;99355.09;5236121;28;20036;-70
2023/03/31 08:56:38;;;;;;;16.20;3.15;;;;;;;13.41;100.00;99356.19;5237007;28;20036;-70
2023/03/31 08:59:37;;;;;;;14.63;3.75;;;;;;;13.70;100.00;99341.31;5237678;28;20026;-70
2023/03/31 09:02:21;;;;;;;15.55;3.88;;;;;;;13.50;100.00;99354.28;5236496;28;20036;-70
2023/03/31 09:04:55;;;;;;;11.10;3.67;;;;;;;13.53;100.00;99357.34;5238970;28;20611;-70
2023/03/31 09:07:41;;;;;;;15.63;4.00;;;;;;;13.72;100.00;99353.28;5241501;28;20033;-70
2023/03/31 09:10:41;;;;;;;19.55;5.05;;;;;;;13.95;100.00;99357.56;5240763;28;20033;-71
2023/03/31 09:13:22;;;;;;;18.33;4.43;;;;;;;13.70;100.00;99344.75;5212964;28;20049;-70
2023/03/31 09:16:18;;;;;;;15.15;4.25;;;;;;;13.90;100.00;99346.75;5228734;28;20272;-70
2023/03/31 09:18:54;;;;;;;16.27;4.65;;;;;;;13.63;100.00;99338.59;5239838;28;20059;-70
2023/03/31 09:21:33;;;;;;;14.45;4.15;;;;;;;13.73;100.00;99340.94;5233851;28;20060;-71
2023/03/31 09:24:10;;;;;;;15.20;3.72;;;;;;;13.70;100.00;99338.69;5235148;28;20333;-70
2023/03/31 09:26:47;;;;;;;12.15;3.63;;;;;;;13.70;100.00;99322.88;5234060;28;20551;-70
2023/03/31 09:29:29;;;;;;;14.60;4.00;;;;;;;13.77;100.00;99323.78;5233539;28;20024;-71
2023/03/31 09:32:12;;;;;;;13.32;3.88;;;;;;;13.64;100.00;99335.00;5240155;28;20053;-70
2023/03/31 09:34:45;;;;;;;14.20;3.38;;;;;;;13.63;100.00;99323.63;5238480;28;20033;-70
2023/03/31 09:37:17;;;;;;;14.88;3.25;;;;;;;13.81;100.00;99320.56;5234110;28;20184;-70
2023/03/31 09:39:48;;;;;;;15.95;4.55;;;;;;;13.91;100.00;99338.69;5239009;28;20037;-71
2023/03/31 09:42:20;;;;;;;15.70;3.45;;;;;;;13.83;100.00;99310.69;5234684;28;20028;-71
2023/03/31 09:44:51;;;;;;;12.93;3.45;;;;;;;13.99;100.00;99306.16;5238565;28;20025;-71
2023/03/31 09:47:38;;;;;;;12.00;3.63;;;;;;;14.31;100.00;99317.94;5235894;28;20518;-71
2023/03/31 09:50:10;;;;;;;13.73;3.38;;;;;;;14.11;100.00;99321.25;5237816;28;20125;-71
2023/03/31 09:52:50;;;;;;;11.90;3.40;;;;;;;14.29;100.00;99315.50;5240690;28;20068;-71
2023/03/31 09:55:26;;;;;;;14.30;3.85;;;;;;;14.23;100.00;99300.47;5238193;28;20033;-71
2023/03/31 09:58:00;;;;;;;16.90;3.58;;;;;;;14.27;100.00;99308.81;5238523;28;20074;-71
2023/03/31 10:00:32;;;;;;;12.30;3.47;;;;;;;14.31;100.00;99304.78;5240295;28;20482;-71
2023/03/31 10:03:07;;;;;;;12.15;3.15;;;;;;;14.36;100.00;99292.66;5237118;28;20044;-72
2023/03/31 10:05:49;;;;;;;10.50;3.13;;;;;;;14.51;100.00;99303.13;5237753;28;20493;-72
2023/03/31 10:08:26;;;;;;;10.32;3.50;;;;;;;14.53;100.00;99301.09;5239911;28;20064;-72
2023/03/31 10:11:00;;;;;;;7.70;2.40;;;;;;;14.47;100.00;99306.28;5234253;28;20108;-72
2023/03/31 10:13:44;;;;;;;9.05;2.40;;;;;;;14.51;100.00;99299.69;5233075;28;20044;-72
2023/03/31 10:16:33;;;;;;;11.30;3.05;;;;;;;14.46;100.00;99288.88;5232766;28;20051;-72
2023/03/31 10:19:27;;;;;;;11.25;2.67;;;;;;;14.45;100.00;99298.59;5237042;28;20044;-72
2023/03/31 10:22:14;;;;;;;9.50;2.83;;;;;;;14.38;100.00;99296.91;5234395;28;20723;-72
2023/03/31 10:24:47;;;;;;;8.40;2.55;;;;;;;14.26;100.00;99297.44;5237239;28;20040;-73
2023/03/31 10:27:30;;;;;;;10.05;3.30;;;;;;;14.53;100.00;99289.75;5235403;28;20116;-72
2023/03/31 10:30:08;;;;;;;8.88;2.20;;;;;;;14.47;100.00;99293.13;5235064;28;20029;-72
2023/03/31 10:32:41;;;;;;;9.18;2.55;;;;;;;14.35;100.00;99280.47;5234418;28;20061;-72
2023/03/31 10:35:31;;;;;;;9.30;3.28;;;;;;;14.40;100.00;99292.28;5232803;28;20032;-72
2023/03/31 10:38:10;;;;;;;7.20;2.13;;;;;;;14.20;100.00;99285.03;5237336;28;20363;-72
2023/03/31 10:40:54;;;;;;;11.77;2.92;;;;;;;14.32;100.00;99277.44;5237341;28;20434;-72
2023/03/31 10:43:40;;;;;;;12.52;3.22;;;;;;;14.43;100.00;99273.44;5233596;28;20449;-72
2023/03/31 10:46:11;;;;;;;12.80;4.13;;;;;;;14.28;100.00;99273.53;5236442;28;20402;-71
2023/03/31 10:48:43;;;;;;;11.13;3.50;;;;;;;14.34;100.00;99270.97;5231815;28;20033;-72
2023/03/31 10:51:24;;;;;;;9.07;2.57;;;;;;;14.53;100.00;99263.41;5234619;28;20045;-72
2023/03/31 10:54:03;;;;;;;12.73;3.30;;;;;;;14.48;100.00;99266.59;5233258;28;20320;-72
2023/03/31 10:56:38;;;;;;;10.65;2.67;;;;;;;14.51;100.00;99262.78;5233838;28;20120;-72
2023/03/31 10:59:36;;;;;;;11.80;2.95;;;;;;;14.77;100.00;99252.38;5237164;28;20407;-72
2023/03/31 11:02:49;;;;;;;12.88;3.22;;;;;;;14.88;100.00;99256.25;5236633;28;20037;-72
2023/03/31 11:05:45;;;;;;;10.57;2.95;;;;;;;14.51;100.00;99263.59;5231635;28;20029;-72
2023/03/31 11:08:34;;;;;;;14.27;3.15;;;;;;;14.52;100.00;99261.78;5232563;28;20039;-72
2023/03/31 11:11:47;;;;;;;13.18;2.92;;;;;;;14.32;100.00;99269.53;5237912;28;20429;-72
2023/03/31 11:14:53;;;;;;;11.00;2.92;;;;;;;14.31;100.00;99257.34;5235755;28;20483;-72
2023/03/31 11:17:52;;;;;;;10.52;2.85;;;;;;;14.33;100.00;99256.16;5231329;28;20482;-72
2023/03/31 11:20:35;;;;;;;14.23;3.38;;;;;;;14.42;100.00;99243.63;5229862;28;20032;-72
2023/03/31 11:23:32;;;;;;;12.40;3.60;;;;;;;14.59;100.00;99246.81;5232626;28;20390;-72
2023/03/31 11:26:10;;;;;;;13.43;3.78;;;;;;;14.66;100.00;99242.41;5231131;28;20029;-72
2023/03/31 11:29:01;;;;;;;12.32;3.15;;;;;;;14.90;100.00;99230.53;5237205;28;20417;-71
2023/03/31 11:31:48;;;;;;;12.80;3.33;;;;;;;14.62;100.00;99233.22;5232499;28;20083;-71
2023/03/31 11:34:41;;;;;;;17.63;4.28;;;;;;;14.95;100.00;99222.81;5236059;28;20467;-71
2023/03/31 11:37:21;;;;;;;12.07;3.08;;;;;;;14.94;100.00;99221.19;5231945;28;20047;-71
2023/03/31 11:40:39;;;;;;;11.13;3.42;;;;;;;15.10;100.00;99222.66;5238481;28;20579;-71
2023/03/31 11:43:34;;;;;;;10.07;3.35;;;;;;;14.82;100.00;99220.97;5172673;28;20068;-71
2023/03/31 11:46:36;;;;;;;10.55;3.33;;;;;;;14.73;100.00;99213.41;5227385;28;20044;-72
2023/03/31 11:49:28;;;;;;;10.57;3.15;;;;;;;14.81;100.00;99206.16;5235340;28;20119;-71
2023/03/31 11:52:05;;;;;;;9.65;3.20;;;;;;;14.92;100.00;99217.13;5232554;28;20063;-71
2023/03/31 11:54:43;;;;;;;10.90;4.15;;;;;;;14.85;100.00;99214.50;5235044;28;21008;-71
2023/03/31 11:57:22;;;;;;;10.10;2.83;;;;;;;14.89;100.00;99212.25;5231784;28;20033;-71
2023/03/31 11:59:59;;;;;;;10.48;2.72;;;;;;;14.86;100.00;99207.38;5235546;28;20112;-71
2023/03/31 12:02:46;;;;;;;9.20;2.55;;;;;;;15.02;100.00;99207.84;5232379;28;20036;-71
2023/03/31 12:05:21;;;;;;;11.20;2.58;;;;;;;14.98;100.00;99190.78;5233303;28;20029;-71